Time;durP1;ratioP1;P1;durP2;ratioP2;P2;SDS_P1;SDS_P2;PMS_P1;PMS_P2;Temp;Humidity;BMP_temperature;BMP_pressure;BME280_temperature;BME280_humidity;BME280_pressure;Samples;Min_cycle;Max_cycle;Signal;HPM_P1;HPM_P2
2023/06/08 00:00:13;;;;;;;14.73;5.70;;;12.90;99.90;;;;;;5053708;28;20128;-51
2023/06/08 00:02:42;;;;;;;12.23;5.75;;;12.80;99.90;;;;;;5052136;28;20091;-54
2023/06/08 00:05:13;;;;;;;12.93;5.28;;;12.80;99.90;;;;;;5052199;28;20037;-48
2023/06/08 00:07:43;;;;;;;16.65;6.25;;;12.70;99.90;;;;;;5053436;28;20061;-53
2023/06/08 00:10:10;;;;;;;11.77;5.47;;;12.70;99.90;;;;;;5053751;28;20041;-52
2023/06/08 00:12:37;;;;;;;13.40;6.45;;;12.70;99.90;;;;;;5053668;28;20087;-55
2023/06/08 00:15:04;;;;;;;11.75;5.50;;;12.60;99.90;;;;;;5053008;28;20128;-51
2023/06/08 00:17:31;;;;;;;14.05;5.28;;;12.70;99.90;;;;;;5053231;28;20044;-55
2023/06/08 00:20:00;;;;;;;13.93;5.63;;;12.70;99.90;;;;;;5053255;28;20041;-53
2023/06/08 00:22:26;;;;;;;11.20;5.75;;;12.70;99.90;;;;;;5053074;28;20549;-48
2023/06/08 00:24:53;;;;;;;12.20;5.93;;;12.70;99.90;;;;;;5053121;28;20537;-53
2023/06/08 00:27:20;;;;;;;10.85;5.20;;;12.60;99.90;;;;;;5053454;28;20120;-50
2023/06/08 00:29:47;;;;;;;8.80;4.57;;;12.60;99.90;;;;;;5051903;28;20045;-54
2023/06/08 00:32:14;;;;;;;11.80;5.18;;;12.60;99.90;;;;;;5052973;28;20068;-49
2023/06/08 00:34:40;;;;;;;11.50;4.90;;;12.60;99.90;;;;;;5053143;28;20052;-53
2023/06/08 00:37:07;;;;;;;13.55;5.30;;;12.60;99.90;;;;;;5053012;28;20048;-56
2023/06/08 00:39:34;;;;;;;14.18;5.45;;;12.50;99.90;;;;;;5053303;28;20048;-53
2023/06/08 00:42:01;;;;;;;10.98;5.65;;;12.50;99.90;;;;;;5053775;28;20033;-50
2023/06/08 00:44:28;;;;;;;11.70;5.20;;;12.50;99.90;;;;;;5056704;28;20041;-53
2023/06/08 00:46:55;;;;;;;9.13;5.57;;;12.60;99.90;;;;;;5057041;28;20041;-51
2023/06/08 00:49:22;;;;;;;10.32;4.82;;;12.60;99.90;;;;;;5056656;28;20045;-52
2023/06/08 00:51:49;;;;;;;10.82;5.13;;;12.60;99.90;;;;;;5056786;28;20049;-50
2023/06/08 00:54:16;;;;;;;12.82;5.38;;;12.50;99.90;;;;;;5056836;28;20099;-55
2023/06/08 00:56:48;;;;;;;15.10;6.47;;;12.50;99.90;;;;;;5054821;28;20124;-55
2023/06/08 00:59:20;;;;;;;9.50;4.80;;;12.50;99.90;;;;;;5056693;28;20045;-52
2023/06/08 01:01:47;;;;;;;12.55;5.05;;;12.40;99.90;;;;;;5056644;28;20414;-47
2023/06/08 01:04:15;;;;;;;11.80;5.30;;;12.50;99.90;;;;;;5056566;28;20065;-51
2023/06/08 01:06:44;;;;;;;8.70;5.18;;;12.40;99.90;;;;;;5056315;28;20077;-51
2023/06/08 01:09:12;;;;;;;12.73;5.15;;;12.40;99.90;;;;;;5055222;28;20095;-51
2023/06/08 01:11:42;;;;;;;11.25;5.18;;;12.30;99.90;;;;;;5054852;28;20580;-51
2023/06/08 01:14:09;;;;;;;14.80;5.68;;;12.40;99.90;;;;;;5055443;28;20049;-56
2023/06/08 01:16:36;;;;;;;12.75;5.68;;;12.40;99.90;;;;;;5056490;28;20033;-48
2023/06/08 01:19:04;;;;;;;11.80;6.00;;;12.40;99.90;;;;;;5056338;28;20041;-51
2023/06/08 01:21:30;;;;;;;11.35;5.43;;;12.40;99.90;;;;;;5056050;28;20056;-53
2023/06/08 01:23:57;;;;;;;12.30;5.47;;;12.40;99.90;;;;;;5056263;28;20474;-52
2023/06/08 01:26:26;;;;;;;12.70;5.07;;;12.30;99.90;;;;;;5056275;28;20041;-50
2023/06/08 01:28:55;;;;;;;13.68;5.65;;;12.30;99.90;;;;;;5056433;28;20116;-51
2023/06/08 01:31:22;;;;;;;11.27;5.13;;;12.40;99.90;;;;;;5054701;28;20044;-48
2023/06/08 01:33:49;;;;;;;10.75;5.20;;;12.40;99.90;;;;;;5055658;28;20147;-54
2023/06/08 01:36:16;;;;;;;11.48;4.90;;;12.50;99.90;;;;;;5054647;28;20032;-52
2023/06/08 01:38:45;;;;;;;13.93;5.38;;;12.50;99.90;;;;;;5055030;28;20351;-53
2023/06/08 01:41:12;;;;;;;11.80;5.10;;;12.50;99.90;;;;;;5054363;28;20069;-53
2023/06/08 01:43:39;;;;;;;13.35;5.30;;;12.40;99.90;;;;;;5054749;28;20055;-51
2023/06/08 01:46:05;;;;;;;11.65;5.30;;;12.40;99.90;;;;;;5055767;28;20036;-54
2023/06/08 01:48:32;;;;;;;10.98;5.63;;;12.40;99.90;;;;;;5056169;28;20069;-49
2023/06/08 01:50:59;;;;;;;13.45;5.63;;;12.30;99.90;;;;;;5056058;28;20414;-51
2023/06/08 01:53:26;;;;;;;10.63;5.15;;;12.30;99.90;;;;;;5055560;28;20044;-52
2023/06/08 01:55:52;;;;;;;10.73;5.13;;;12.20;99.90;;;;;;5055654;28;20056;-52
2023/06/08 01:58:19;;;;;;;10.52;5.43;;;12.20;99.90;;;;;;5054195;28;20388;-53
2023/06/08 02:00:46;;;;;;;16.52;6.22;;;12.20;99.90;;;;;;5037919;28;20077;-48
2023/06/08 02:03:13;;;;;;;12.13;5.18;;;12.20;99.90;;;;;;5055231;28;20055;-49
2023/06/08 02:05:40;;;;;;;10.02;5.43;;;12.10;99.90;;;;;;5054178;28;20128;-52
2023/06/08 02:08:07;;;;;;;10.32;5.05;;;12.20;99.90;;;;;;5055287;28;20044;-54
2023/06/08 02:10:33;;;;;;;13.02;5.10;;;12.20;99.90;;;;;;5054352;28;20060;-55
2023/06/08 02:13:00;;;;;;;12.10;4.80;;;12.20;99.90;;;;;;5053862;28;20566;-51
2023/06/08 02:15:27;;;;;;;10.43;4.47;;;12.20;99.90;;;;;;5054138;28;20045;-54
2023/06/08 02:17:58;;;;;;;11.23;4.88;;;12.30;99.90;;;;;;5054815;28;20541;-49
2023/06/08 02:20:25;;;;;;;9.50;4.30;;;12.30;99.90;;;;;;5055263;28;20044;-50
2023/06/08 02:22:52;;;;;;;13.57;4.70;;;12.30;99.90;;;;;;5053646;28;20094;-50
2023/06/08 02:25:19;;;;;;;12.57;4.00;;;12.30;99.90;;;;;;5055021;28;20475;-52
2023/06/08 02:27:48;;;;;;;9.20;4.25;;;12.30;99.90;;;;;;5055117;28;20329;-53
2023/06/08 02:30:15;;;;;;;10.02;4.03;;;12.30;99.90;;;;;;5053755;28;20049;-51
2023/06/08 02:32:45;;;;;;;10.85;4.18;;;12.30;99.90;;;;;;5054890;28;20087;-49
2023/06/08 02:35:13;;;;;;;8.25;4.63;;;12.20;99.90;;;;;;5053892;28;20043;-54
2023/06/08 02:37:43;;;;;;;10.05;4.22;;;12.20;99.90;;;;;;5053571;28;20098;-54
2023/06/08 02:40:11;;;;;;;9.70;4.70;;;12.20;99.90;;;;;;5053518;28;20484;-54
2023/06/08 02:42:39;;;;;;;10.23;4.28;;;12.20;99.90;;;;;;5053347;28;20487;-53
2023/06/08 02:45:08;;;;;;;9.50;4.50;;;12.30;99.90;;;;;;5053379;28;20072;-50
2023/06/08 02:47:35;;;;;;;13.82;4.25;;;12.20;99.90;;;;;;5053516;28;20037;-48
2023/06/08 02:50:03;;;;;;;11.68;4.32;;;12.20;99.90;;;;;;5053374;28;20045;-52
2023/06/08 02:52:30;;;;;;;8.65;3.92;;;12.30;99.90;;;;;;5053107;28;20056;-53
2023/06/08 02:54:57;;;;;;;10.25;4.90;;;12.30;99.90;;;;;;5052822;28;20045;-54
2023/06/08 02:57:25;;;;;;;10.43;4.30;;;12.30;99.90;;;;;;5052985;28;20044;-52
2023/06/08 02:59:56;;;;;;;8.05;4.38;;;12.20;99.90;;;;;;5052992;28;20418;-52
2023/06/08 03:02:24;;;;;;;10.65;4.45;;;12.10;99.90;;;;;;5053147;28;20132;-53
2023/06/08 03:05:02;;;;;;;11.27;4.05;;;12.10;99.90;;;;;;5052659;28;20130;-53
2023/06/08 03:07:29;;;;;;;;;;;12.10;99.90;;;;;;5054815;28;20048;-51
2023/06/08 03:10:02;;;;;;;11.07;4.70;;;12.10;99.90;;;;;;5053085;28;20403;-51
2023/06/08 03:12:29;;;;;;;11.82;4.47;;;12.10;99.90;;;;;;5054321;28;20049;-52
2023/06/08 03:14:56;;;;;;;11.70;4.15;;;12.00;99.90;;;;;;5052759;28;20395;-51
2023/06/08 03:17:26;;;;;;;10.13;4.13;;;12.00;99.90;;;;;;5053965;28;20083;-50
2023/06/08 03:19:59;;;;;;;8.73;4.13;;;12.00;99.90;;;;;;5052673;28;20172;-54
2023/06/08 03:22:29;;;;;;;12.15;4.43;;;12.00;99.90;;;;;;5052828;28;20045;-51
2023/06/08 03:25:03;;;;;;;8.60;4.28;;;11.90;99.90;;;;;;5052570;28;20132;-53
2023/06/08 03:27:31;;;;;;;12.63;4.25;;;11.90;99.90;;;;;;5052715;28;20049;-49
2023/06/08 03:30:03;;;;;;;7.32;3.65;;;12.00;99.90;;;;;;5052314;28;20427;-51
2023/06/08 03:32:37;;;;;;;9.32;3.95;;;12.00;99.90;;;;;;5052597;28;20041;-50
2023/06/08 03:35:05;;;;;;;8.40;3.97;;;12.00;99.90;;;;;;5052203;28;20057;-51
2023/06/08 03:37:32;;;;;;;14.55;4.03;;;11.90;99.90;;;;;;5052325;28;20059;-51
2023/06/08 03:40:00;;;;;;;10.20;4.15;;;11.90;99.90;;;;;;5052073;28;20072;-52
2023/06/08 03:42:29;;;;;;;8.65;4.28;;;11.80;99.90;;;;;;5052283;28;20037;-50
2023/06/08 03:44:56;;;;;;;10.98;4.28;;;11.80;99.90;;;;;;5053917;28;20071;-53
2023/06/08 03:47:23;;;;;;;11.48;4.25;;;11.80;99.90;;;;;;5052432;28;20189;-52
2023/06/08 03:49:50;;;;;;;10.20;4.25;;;11.80;99.90;;;;;;5053763;28;20107;-51
2023/06/08 03:52:18;;;;;;;8.63;3.72;;;11.80;99.90;;;;;;5052355;28;20416;-48
2023/06/08 03:54:45;;;;;;;10.90;4.50;;;11.90;99.90;;;;;;5052580;28;20382;-50
2023/06/08 03:57:15;;;;;;;8.00;4.18;;;11.90;99.90;;;;;;5036114;28;20199;-52
2023/06/08 03:59:43;;;;;;;12.57;4.80;;;11.90;99.90;;;;;;5052400;28;20136;-52
2023/06/08 04:02:10;;;;;;;11.20;3.95;;;12.00;99.90;;;;;;5052264;28;20033;-51
2023/06/08 04:04:39;;;;;;;8.82;4.32;;;11.90;99.90;;;;;;5053562;28;20407;-53
2023/06/08 04:07:07;;;;;;;10.45;3.80;;;11.90;99.90;;;;;;5052552;28;20483;-53
2023/06/08 04:09:34;;;;;;;13.70;4.20;;;11.80;99.90;;;;;;5053475;28;20547;-53
2023/06/08 04:12:02;;;;;;;11.63;4.07;;;11.80;99.90;;;;;;5052347;28;20147;-53
2023/06/08 04:14:30;;;;;;;9.20;3.80;;;11.80;99.90;;;;;;5052179;28;20411;-50
2023/06/08 04:16:57;;;;;;;9.68;4.07;;;11.80;99.90;;;;;;5053477;28;20082;-52
2023/06/08 04:19:26;;;;;;;11.40;3.97;;;11.80;99.90;;;;;;5055876;28;20135;-50
2023/06/08 04:21:56;;;;;;;8.27;3.83;;;11.80;99.90;;;;;;5055859;28;20479;-50
2023/06/08 04:24:28;;;;;;;12.75;4.22;;;11.80;99.90;;;;;;5056085;28;20167;-51
2023/06/08 04:26:56;;;;;;;13.40;4.20;;;11.70;99.90;;;;;;5055740;28;20491;-54
2023/06/08 04:29:23;;;;;;;10.57;3.70;;;11.80;99.90;;;;;;5055665;28;20064;-54
2023/06/08 04:31:51;;;;;;;9.88;3.85;;;11.90;99.90;;;;;;5056787;28;20500;-53
2023/06/08 04:34:18;;;;;;;9.77;4.05;;;11.90;99.90;;;;;;5055678;28;20059;-53
2023/06/08 04:36:46;;;;;;;8.80;3.65;;;11.90;99.90;;;;;;5055685;28;20132;-52
2023/06/08 04:39:14;;;;;;;11.27;4.40;;;11.90;99.90;;;;;;5055409;28;20037;-49
2023/06/08 04:41:41;;;;;;;11.75;4.25;;;11.80;99.90;;;;;;5056897;28;20065;-53
2023/06/08 04:44:10;;;;;;;7.53;3.58;;;11.80;99.90;;;;;;5038947;28;20136;-52
2023/06/08 04:46:38;;;;;;;11.25;3.70;;;11.80;99.90;;;;;;5055495;28;20102;-49
2023/06/08 04:49:06;;;;;;;8.90;3.80;;;11.90;99.90;;;;;;5055682;28;20045;-54
2023/06/08 04:51:33;;;;;;;10.52;3.83;;;11.90;99.90;;;;;;5056009;28;20055;-50
2023/06/08 04:54:00;;;;;;;7.22;3.40;;;11.90;99.90;;;;;;5055955;28;20365;-54
2023/06/08 04:56:29;;;;;;;8.57;3.60;;;11.90;99.90;;;;;;5055412;28;20120;-53
2023/06/08 04:58:56;;;;;;;11.65;3.90;;;12.00;99.90;;;;;;5055396;28;20045;-50
2023/06/08 05:01:24;;;;;;;9.80;3.55;;;12.00;99.90;;;;;;5056931;28;20490;-53
2023/06/08 05:03:51;;;;;;;11.80;4.00;;;12.00;99.90;;;;;;5055322;28;20072;-51
2023/06/08 05:06:17;;;;;;;12.00;4.78;;;12.00;99.90;;;;;;5056582;28;20037;-54
2023/06/08 05:08:44;;;;;;;11.82;3.80;;;12.00;99.90;;;;;;5055392;28;20461;-53
2023/06/08 05:11:11;;;;;;;14.90;4.35;;;12.00;99.90;;;;;;5056608;28;20045;-52
2023/06/08 05:13:38;;;;;;;8.45;3.80;;;12.00;99.90;;;;;;5056820;28;20430;-54
2023/06/08 05:16:05;;;;;;;8.55;3.75;;;12.00;99.90;;;;;;5056405;28;20509;-52
2023/06/08 05:18:31;;;;;;;6.70;3.25;;;12.00;99.90;;;;;;5056324;28;20037;-54
2023/06/08 05:20:58;;;;;;;10.43;3.67;;;12.10;99.90;;;;;;5056419;28;20344;-48
2023/06/08 05:23:25;;;;;;;10.38;3.80;;;12.10;99.90;;;;;;5056482;28;20037;-54
2023/06/08 05:25:52;;;;;;;11.20;3.78;;;12.20;99.90;;;;;;5056308;28;20045;-51
2023/06/08 05:28:18;;;;;;;8.77;3.97;;;12.30;99.90;;;;;;5054771;28;20133;-53
2023/06/08 05:30:45;;;;;;;8.73;3.47;;;12.20;99.90;;;;;;5056408;28;20056;-53
2023/06/08 05:33:12;;;;;;;8.48;3.72;;;12.20;99.90;;;;;;5056219;28;20095;-52
2023/06/08 05:35:39;;;;;;;5.97;3.30;;;12.20;99.90;;;;;;5056131;28;20063;-52
2023/06/08 05:38:06;;;;;;;10.27;4.15;;;12.20;99.90;;;;;;5056257;28;20116;-50
2023/06/08 05:40:33;;;;;;;8.40;3.30;;;12.20;99.90;;;;;;5055788;28;20045;-52
2023/06/08 05:43:00;;;;;;;10.73;3.75;;;12.20;99.90;;;;;;5055847;28;20159;-52
2023/06/08 05:45:26;;;;;;;6.60;3.63;;;12.20;99.90;;;;;;5056070;28;20045;-52
2023/06/08 05:47:53;;;;;;;8.82;4.03;;;12.30;99.90;;;;;;5056149;28;20045;-53
2023/06/08 05:50:20;;;;;;;11.23;3.80;;;12.30;99.90;;;;;;5055885;28;20429;-55
2023/06/08 05:52:47;;;;;;;8.73;3.60;;;12.30;99.90;;;;;;5055626;28;20045;-50
2023/06/08 05:55:14;;;;;;;6.82;3.63;;;12.30;99.90;;;;;;5055603;28;20522;-52
2023/06/08 05:57:40;;;;;;;8.32;3.53;;;12.30;99.90;;;;;;5038083;28;20060;-54
2023/06/08 06:00:10;;;;;;;9.32;4.25;;;12.30;99.90;;;;;;5055422;28;20037;-54
2023/06/08 06:02:39;;;;;;;8.45;4.13;;;12.30;99.90;;;;;;5054335;28;20045;-53
2023/06/08 06:05:08;;;;;;;9.57;4.32;;;12.40;99.90;;;;;;5055460;28;20037;-55
2023/06/08 06:07:35;;;;;;;7.13;3.45;;;12.50;99.90;;;;;;5054538;28;20368;-52
2023/06/08 06:10:02;;;;;;;10.13;4.35;;;12.60;99.90;;;;;;5055342;28;20037;-53
2023/06/08 06:12:29;;;;;;;11.55;4.03;;;12.60;99.90;;;;;;5055049;28;20036;-50
2023/06/08 06:14:56;;;;;;;8.32;3.33;;;12.70;99.90;;;;;;5055379;28;20037;-49
2023/06/08 06:17:23;;;;;;;9.13;3.28;;;12.80;99.90;;;;;;5055439;28;20040;-53
2023/06/08 06:19:50;;;;;;;10.90;4.18;;;12.90;99.90;;;;;;5055175;28;20112;-50
2023/06/08 06:22:17;;;;;;;11.85;3.42;;;12.80;99.90;;;;;;5054929;28;20037;-53
2023/06/08 06:24:44;;;;;;;7.00;3.72;;;12.80;99.90;;;;;;5055058;28;20112;-53
2023/06/08 06:27:11;;;;;;;8.27;3.60;;;12.90;99.90;;;;;;5055247;28;20049;-55
2023/06/08 06:29:38;;;;;;;10.27;3.78;;;12.90;99.90;;;;;;5055037;28;20049;-52
2023/06/08 06:32:05;;;;;;;11.05;4.00;;;13.00;99.90;;;;;;5055187;28;20049;-53
2023/06/08 06:34:32;;;;;;;10.82;4.32;;;13.10;99.90;;;;;;5053904;28;20048;-52
2023/06/08 06:36:59;;;;;;;6.70;4.10;;;13.10;99.90;;;;;;5054796;28;20059;-52
2023/06/08 06:39:25;;;;;;;12.13;3.97;;;13.10;99.90;;;;;;5054288;28;20045;-49
2023/06/08 06:41:52;;;;;;;8.88;3.75;;;13.10;99.90;;;;;;5054587;28;20041;-51
2023/06/08 06:44:22;;;;;;;15.15;4.50;;;13.30;99.90;;;;;;5053395;28;20037;-53
2023/06/08 06:46:48;;;;;;;11.20;3.90;;;13.30;99.90;;;;;;5054691;28;20124;-55
2023/06/08 06:49:15;;;;;;;9.55;4.32;;;13.30;99.90;;;;;;5054612;28;20049;-55
2023/06/08 06:51:42;;;;;;;11.60;4.07;;;13.30;99.90;;;;;;5054590;28;20040;-53
2023/06/08 06:54:09;;;;;;;10.80;4.35;;;13.20;99.90;;;;;;5053442;28;20041;-52
2023/06/08 06:56:36;;;;;;;10.52;4.40;;;13.30;99.90;;;;;;5054206;28;20143;-53
2023/06/08 06:59:03;;;;;;;9.77;4.47;;;13.50;99.90;;;;;;5053155;28;20052;-55
2023/06/08 07:01:35;;;;;;;12.90;3.95;;;13.50;99.90;;;;;;5053495;28;20033;-54
2023/06/08 07:04:03;;;;;;;11.35;3.80;;;13.60;99.90;;;;;;5054036;28;20041;-50
2023/06/08 07:06:30;;;;;;;5.47;3.33;;;13.60;99.90;;;;;;5053661;28;20044;-51
2023/06/08 07:08:57;;;;;;;9.70;3.88;;;13.60;99.90;;;;;;5053765;28;20102;-51
2023/06/08 07:11:24;;;;;;;8.75;4.18;;;13.60;99.90;;;;;;5049516;28;20095;-49
2023/06/08 07:13:51;;;;;;;9.50;4.13;;;13.60;99.90;;;;;;5053440;28;20051;-53
2023/06/08 07:16:21;;;;;;;6.25;3.25;;;13.70;99.90;;;;;;5053669;28;20044;-48
2023/06/08 07:18:51;;;;;;;9.43;3.63;;;13.70;99.90;;;;;;5053355;28;20444;-50
2023/06/08 07:21:21;;;;;;;8.07;3.92;;;13.80;99.90;;;;;;5053325;28;20044;-53
2023/06/08 07:23:49;;;;;;;9.52;3.67;;;13.80;99.90;;;;;;5053711;28;20041;-48
2023/06/08 07:26:36;;;;;;;9.05;3.80;;;13.80;99.90;;;;;;5053668;28;20397;-48
2023/06/08 07:29:03;;;;;;;10.68;4.10;;;13.90;99.90;;;;;;5053359;28;20091;-50
2023/06/08 07:31:30;;;;;;;10.55;4.13;;;13.90;99.90;;;;;;5053137;28;20045;-52
2023/06/08 07:33:57;;;;;;;8.13;3.85;;;13.80;99.90;;;;;;5052678;28;20047;-50
2023/06/08 07:36:24;;;;;;;8.88;4.05;;;14.00;99.90;;;;;;5053321;28;20045;-48
2023/06/08 07:38:51;;;;;;;11.77;4.10;;;14.20;99.80;;;;;;5053132;28;20045;-55
2023/06/08 07:41:18;;;;;;;9.95;3.85;;;14.30;99.90;;;;;;5052999;28;20089;-55
2023/06/08 07:43:45;;;;;;;9.05;4.03;;;14.40;99.60;;;;;;5052671;28;20041;-48
2023/06/08 07:46:12;;;;;;;7.55;3.75;;;14.40;99.30;;;;;;5053181;28;20049;-53
2023/06/08 07:48:38;;;;;;;9.63;3.55;;;14.40;99.40;;;;;;5052947;28;20388;-51
2023/06/08 07:51:05;;;;;;;8.85;3.20;;;14.30;99.30;;;;;;5052843;28;20067;-51
2023/06/08 07:53:32;;;;;;;10.02;3.78;;;14.30;99.60;;;;;;5053131;28;20045;-52
2023/06/08 07:55:59;;;;;;;10.32;3.00;;;14.20;99.40;;;;;;5051608;28;20067;-51
2023/06/08 07:58:26;;;;;;;6.55;3.50;;;14.40;99.80;;;;;;5053068;28;20045;-49
2023/06/08 08:00:53;;;;;;;11.63;3.70;;;14.40;99.30;;;;;;5052802;28;20068;-52
2023/06/08 08:03:20;;;;;;;8.07;3.60;;;14.60;99.20;;;;;;5050426;28;20091;-56
2023/06/08 08:05:49;;;;;;;8.77;3.70;;;14.80;99.00;;;;;;5044169;28;20038;-52
2023/06/08 08:08:15;;;;;;;7.22;3.40;;;15.00;98.80;;;;;;5044515;28;20061;-54
2023/06/08 08:10:42;;;;;;;8.90;3.60;;;15.10;98.70;;;;;;5052329;28;20064;-52
2023/06/08 08:13:09;;;;;;;11.70;4.47;;;15.10;98.70;;;;;;5044132;28;20741;-52
2023/06/08 08:15:36;;;;;;;9.52;3.35;;;15.10;98.70;;;;;;5031659;28;20500;-53
2023/06/08 08:18:03;;;;;;;7.40;3.38;;;15.20;98.50;;;;;;5032664;28;20423;-49
2023/06/08 08:20:29;;;;;;;9.40;3.60;;;15.20;98.60;;;;;;5032681;28;20045;-50
2023/06/08 08:22:56;;;;;;;10.65;3.63;;;15.30;98.30;;;;;;5032556;28;20041;-48
2023/06/08 08:25:23;;;;;;;8.18;3.72;;;15.50;98.10;;;;;;5032931;28;20375;-54
2023/06/08 08:27:50;;;;;;;8.88;3.88;;;15.50;97.90;;;;;;5031727;28;20042;-54
2023/06/08 08:30:16;;;;;;;7.95;3.75;;;15.60;98.00;;;;;;5032743;28;20068;-50
2023/06/08 08:32:43;;;;;;;13.50;4.70;;;15.60;97.90;;;;;;5031424;28;20049;-48
2023/06/08 08:35:10;;;;;;;11.00;4.22;;;15.50;97.70;;;;;;5032936;28;20046;-56
2023/06/08 08:37:37;;;;;;;8.30;3.35;;;15.40;98.00;;;;;;5031455;28;20048;-55
2023/06/08 08:40:05;;;;;;;9.68;3.65;;;15.40;98.00;;;;;;5031549;28;20124;-53
2023/06/08 08:42:32;;;;;;;8.40;4.05;;;15.60;98.10;;;;;;5032478;28;20041;-54
2023/06/08 08:45:02;;;;;;;12.85;3.92;;;15.90;98.00;;;;;;5032909;28;20103;-52
2023/06/08 08:47:30;;;;;;;8.85;4.03;;;16.20;97.60;;;;;;5031507;28;20563;-54
2023/06/08 08:49:57;;;;;;;12.52;4.78;;;16.40;97.10;;;;;;5032591;28;20144;-50
2023/06/08 08:52:24;;;;;;;10.05;4.13;;;16.50;96.80;;;;;;5032499;28;20124;-52
2023/06/08 08:54:55;;;;;;;9.05;4.20;;;16.60;96.50;;;;;;5030890;28;20495;-55
2023/06/08 08:57:22;;;;;;;8.02;3.58;;;16.70;96.30;;;;;;5032676;28;20057;-50
2023/06/08 08:59:49;;;;;;;10.32;3.47;;;16.70;96.80;;;;;;5032277;28;20046;-50
2023/06/08 09:02:16;;;;;;;11.75;4.40;;;16.60;96.60;;;;;;5032260;28;20121;-55
2023/06/08 09:04:42;;;;;;;9.35;3.97;;;16.30;96.60;;;;;;5035024;28;20041;-52
2023/06/08 09:07:09;;;;;;;10.10;3.75;;;16.00;97.20;;;;;;5036064;28;20045;-53
2023/06/08 09:09:36;;;;;;;8.50;3.83;;;15.80;97.40;;;;;;5035872;28;20103;-55
2023/06/08 09:12:04;;;;;;;9.45;4.15;;;15.60;97.80;;;;;;5035866;28;20049;-54
2023/06/08 09:14:31;;;;;;;10.38;4.15;;;15.50;98.00;;;;;;5036058;28;20391;-49
2023/06/08 09:16:59;;;;;;;10.38;4.35;;;15.50;97.90;;;;;;5036007;28;20480;-54
2023/06/08 09:19:28;;;;;;;9.73;4.13;;;15.40;98.10;;;;;;5035798;28;20037;-53
2023/06/08 09:21:55;;;;;;;7.63;3.70;;;15.40;98.20;;;;;;5035806;28;20053;-49
2023/06/08 09:24:22;;;;;;;13.50;4.32;;;15.50;98.00;;;;;;5035927;28;20045;-46
2023/06/08 09:26:49;;;;;;;13.80;4.05;;;15.50;98.20;;;;;;5035859;28;20124;-49
2023/06/08 09:29:16;;;;;;;8.95;3.70;;;15.60;98.40;;;;;;5036064;28;20163;-51
2023/06/08 09:31:43;;;;;;;9.40;3.78;;;15.70;98.20;;;;;;5035879;28;20049;-50
2023/06/08 09:34:10;;;;;;;10.45;3.90;;;15.70;98.30;;;;;;5034791;28;20038;-50
2023/06/08 09:36:38;;;;;;;6.38;3.88;;;15.70;98.00;;;;;;5034657;28;20052;-48
2023/06/08 09:39:05;;;;;;;9.35;3.92;;;15.80;98.10;;;;;;5035162;28;20045;-54
2023/06/08 09:41:32;;;;;;;10.15;4.45;;;15.80;98.00;;;;;;5035338;28;20041;-50
2023/06/08 09:44:00;;;;;;;9.68;3.88;;;15.80;98.20;;;;;;5035285;28;20526;-51
2023/06/08 09:46:27;;;;;;;8.73;3.53;;;15.80;98.20;;;;;;5035519;28;20072;-52
2023/06/08 09:48:54;;;;;;;13.60;4.00;;;15.90;98.00;;;;;;5035346;28;20050;-50
2023/06/08 09:51:21;;;;;;;10.57;4.53;;;16.00;97.90;;;;;;5033924;28;20099;-47
2023/06/08 09:53:48;;;;;;;9.77;4.10;;;16.00;98.10;;;;;;5035109;28;20465;-50
2023/06/08 09:56:16;;;;;;;7.88;3.75;;;16.00;97.90;;;;;;5035044;28;20079;-49
2023/06/08 09:58:42;;;;;;;11.10;3.90;;;16.00;97.90;;;;;;5035095;28;20103;-48
2023/06/08 10:01:09;;;;;;;9.40;4.18;;;16.10;97.90;;;;;;5035045;28;20040;-50
2023/06/08 10:03:37;;;;;;;11.75;4.22;;;16.10;97.70;;;;;;5035168;28;20038;-50
2023/06/08 10:06:04;;;;;;;8.30;4.05;;;16.20;97.60;;;;;;5034791;28;20196;-53
2023/06/08 10:08:30;;;;;;;9.48;4.55;;;16.20;97.60;;;;;;5035145;28;20041;-50
2023/06/08 10:10:57;;;;;;;12.73;4.97;;;16.20;97.80;;;;;;5034805;28;20096;-47
2023/06/08 10:13:24;;;;;;;9.00;4.05;;;16.20;97.60;;;;;;5035173;28;20045;-52
2023/06/08 10:15:51;;;;;;;9.73;4.65;;;16.20;97.60;;;;;;5035157;28;20048;-47
2023/06/08 10:18:17;;;;;;;12.38;4.65;;;16.30;97.50;;;;;;5035011;28;20041;-47
2023/06/08 10:20:44;;;;;;;12.20;4.57;;;16.30;97.50;;;;;;5034420;28;20038;-48
2023/06/08 10:23:11;;;;;;;7.88;3.80;;;16.30;97.60;;;;;;5034618;28;20046;-47
2023/06/08 10:25:38;;;;;;;14.48;4.50;;;16.50;97.50;;;;;;5034840;28;20041;-49
2023/06/08 10:28:05;;;;;;;11.43;4.03;;;16.50;97.30;;;;;;5033500;28;20112;-49
2023/06/08 10:30:39;;;;;;;9.63;4.00;;;16.60;97.60;;;;;;5033206;28;20052;-53
2023/06/08 10:33:07;;;;;;;7.47;4.07;;;16.80;97.20;;;;;;5034560;28;20476;-49
2023/06/08 10:35:34;;;;;;;8.57;3.97;;;16.90;97.20;;;;;;5034280;28;20451;-49
2023/06/08 10:38:01;;;;;;;10.15;3.95;;;17.00;96.90;;;;;;5034634;28;20400;-48
2023/06/08 10:40:28;;;;;;;12.38;4.13;;;17.00;96.70;;;;;;5038942;28;20449;-47
2023/06/08 10:42:55;;;;;;;9.73;3.92;;;17.00;96.70;;;;;;5046984;28;20048;-48
2023/06/08 10:45:40;;;;;;;8.80;4.18;;;17.00;96.60;;;;;;5054249;28;20411;-52
2023/06/08 10:48:06;;;;;;;9.77;4.03;;;17.10;96.60;;;;;;5054248;28;20044;-48
2023/06/08 10:50:34;;;;;;;12.48;4.10;;;17.10;96.60;;;;;;5054020;28;20041;-48
2023/06/08 10:53:02;;;;;;;8.82;4.20;;;17.20;96.50;;;;;;5050456;28;20565;-47
2023/06/08 10:55:29;;;;;;;11.13;4.32;;;17.20;96.40;;;;;;5050362;28;20520;-49
2023/06/08 10:58:03;;;;;;;9.65;3.83;;;17.20;96.40;;;;;;5054240;28;20041;-52
2023/06/08 11:00:31;;;;;;;5.90;3.42;;;17.30;96.50;;;;;;5053663;28;20450;-48
2023/06/08 11:02:57;;;;;;;11.93;3.70;;;17.30;95.80;;;;;;5053814;28;20041;-49
2023/06/08 11:05:24;;;;;;;10.25;3.60;;;17.40;95.90;;;;;;5053746;28;20041;-49
2023/06/08 11:07:51;;;;;;;9.15;4.10;;;17.50;95.80;;;;;;5053743;28;20037;-48
2023/06/08 11:10:18;;;;;;;8.63;3.42;;;17.50;95.60;;;;;;5053606;28;20491;-48
2023/06/08 11:12:45;;;;;;;10.20;4.20;;;17.50;95.90;;;;;;5054053;28;20049;-48
2023/06/08 11:15:12;;;;;;;9.70;4.00;;;17.50;95.40;;;;;;5053814;28;20045;-55
2023/06/08 11:17:39;;;;;;;10.63;4.03;;;17.60;95.40;;;;;;5053766;28;20127;-49
2023/06/08 11:20:06;;;;;;;12.20;3.58;;;17.60;95.30;;;;;;5052941;28;20037;-48
2023/06/08 11:22:33;;;;;;;11.52;3.42;;;17.70;95.30;;;;;;5053444;28;20571;-48
2023/06/08 11:25:00;;;;;;;7.10;3.90;;;17.80;94.80;;;;;;5053474;28;20119;-51
2023/06/08 11:27:27;;;;;;;9.50;3.50;;;17.80;94.70;;;;;;5053086;28;20033;-51
2023/06/08 11:29:55;;;;;;;12.80;4.00;;;17.80;95.10;;;;;;5053332;28;20072;-48
2023/06/08 11:32:21;;;;;;;10.07;3.83;;;17.90;95.10;;;;;;5053330;28;20049;-50
2023/06/08 11:34:49;;;;;;;6.55;3.25;;;17.90;95.00;;;;;;5053404;28;20491;-53
2023/06/08 11:37:33;;;;;;;8.82;3.55;;;17.90;95.10;;;;;;5052098;28;20040;-51
2023/06/08 11:40:00;;;;;;;8.43;3.63;;;18.00;95.10;;;;;;5053272;28;20468;-49
2023/06/08 11:42:27;;;;;;;12.38;3.97;;;18.00;94.50;;;;;;5053173;28;20041;-51
2023/06/08 11:44:57;;;;;;;7.88;3.90;;;18.10;94.40;;;;;;5050243;28;20037;-51
2023/06/08 11:47:24;;;;;;;10.05;3.83;;;18.10;94.30;;;;;;5053081;28;20044;-55
2023/06/08 11:49:51;;;;;;;6.95;3.58;;;18.10;94.30;;;;;;5053228;28;20446;-52
2023/06/08 11:52:18;;;;;;;8.10;3.63;;;18.10;94.10;;;;;;5048848;28;20051;-51
2023/06/08 11:54:45;;;;;;;9.15;3.90;;;18.20;94.20;;;;;;5052863;28;20419;-52
2023/06/08 11:57:12;;;;;;;6.95;3.50;;;18.20;94.20;;;;;;5052830;28;20057;-51
2023/06/08 11:59:39;;;;;;;7.55;3.30;;;18.20;94.20;;;;;;5053364;28;20041;-51
2023/06/08 12:02:06;;;;;;;6.30;3.65;;;18.40;94.20;;;;;;5053203;28;20041;-50
2023/06/08 12:04:33;;;;;;;7.85;3.67;;;18.50;93.70;;;;;;5052541;28;20037;-50
2023/06/08 12:07:00;;;;;;;9.10;3.60;;;18.60;92.60;;;;;;5051552;28;20578;-52
2023/06/08 12:09:27;;;;;;;9.45;3.35;;;18.60;93.10;;;;;;5053131;28;20073;-52
2023/06/08 12:11:54;;;;;;;10.95;4.00;;;18.60;93.80;;;;;;5052952;28;20546;-51
2023/06/08 12:14:21;;;;;;;8.70;3.80;;;18.70;94.20;;;;;;5053031;28;20086;-52
2023/06/08 12:16:48;;;;;;;8.95;3.55;;;18.80;94.20;;;;;;5052507;28;20072;-50
2023/06/08 12:19:15;;;;;;;10.85;4.00;;;18.80;94.30;;;;;;5051591;28;20464;-48
2023/06/08 12:21:42;;;;;;;10.20;3.38;;;18.90;94.00;;;;;;5052784;28;20037;-48
2023/06/08 12:24:09;;;;;;;8.50;3.60;;;19.10;93.90;;;;;;5053047;28;20091;-50
2023/06/08 12:26:36;;;;;;;8.80;3.45;;;19.20;93.90;;;;;;5052962;28;20041;-48
2023/06/08 12:29:05;;;;;;;11.00;3.50;;;19.20;93.70;;;;;;5052952;28;20128;-52
2023/06/08 12:31:32;;;;;;;8.93;3.47;;;19.10;94.10;;;;;;5052992;28;20059;-48
2023/06/08 12:33:59;;;;;;;8.40;3.60;;;19.20;93.80;;;;;;5052840;28;20136;-50
2023/06/08 12:36:26;;;;;;;10.02;3.13;;;19.10;93.80;;;;;;5052339;28;20447;-47
2023/06/08 12:38:55;;;;;;;9.80;3.63;;;19.20;94.30;;;;;;5054897;28;20051;-47
2023/06/08 12:41:22;;;;;;;9.98;4.10;;;19.30;94.30;;;;;;5055184;28;20073;-51